sensor_id;sensor_type;location;lat;lon;timestamp;P1;durP1;ratioP1;P2;durP2;ratioP2
14933;SDS011;7560;51.364;12.384;2024-02-14T00:01:26;6.03;;;3.80;;
14933;SDS011;7560;51.364;12.384;2024-02-14T00:06:28;6.10;;;3.60;;
14933;SDS011;7560;51.364;12.384;2024-02-14T00:11:30;5.72;;;3.70;;
14933;SDS011;7560;51.364;12.384;2024-02-14T00:16:33;6.03;;;3.60;;
14933;SDS011;7560;51.364;12.384;2024-02-14T00:21:35;5.50;;;3.97;;
14933;SDS011;7560;51.364;12.384;2024-02-14T00:26:37;4.65;;;3.30;;
14933;SDS011;7560;51.364;12.384;2024-02-14T00:31:40;5.22;;;3.70;;
14933;SDS011;7560;51.364;12.384;2024-02-14T00:36:44;7.90;;;3.90;;
14933;SDS011;7560;51.364;12.384;2024-02-14T00:41:46;6.75;;;3.70;;
14933;SDS011;7560;51.364;12.384;2024-02-14T00:46:48;6.68;;;3.90;;
14933;SDS011;7560;51.364;12.384;2024-02-14T00:51:50;6.28;;;3.40;;
14933;SDS011;7560;51.364;12.384;2024-02-14T00:56:52;4.90;;;3.30;;
14933;SDS011;7560;51.364;12.384;2024-02-14T01:01:54;5.40;;;3.30;;
14933;SDS011;7560;51.364;12.384;2024-02-14T01:06:55;5.03;;;3.70;;
14933;SDS011;7560;51.364;12.384;2024-02-14T01:11:58;5.95;;;3.55;;
14933;SDS011;7560;51.364;12.384;2024-02-14T01:17:00;5.13;;;3.38;;
14933;SDS011;7560;51.364;12.384;2024-02-14T01:22:02;6.38;;;3.50;;
14933;SDS011;7560;51.364;12.384;2024-02-14T01:27:04;6.03;;;3.20;;
14933;SDS011;7560;51.364;12.384;2024-02-14T01:32:06;5.05;;;3.28;;
14933;SDS011;7560;51.364;12.384;2024-02-14T01:37:08;6.05;;;3.28;;
14933;SDS011;7560;51.364;12.384;2024-02-14T01:42:13;4.30;;;3.08;;
14933;SDS011;7560;51.364;12.384;2024-02-14T01:47:15;5.05;;;2.85;;
14933;SDS011;7560;51.364;12.384;2024-02-14T01:52:18;3.67;;;2.75;;
14933;SDS011;7560;51.364;12.384;2024-02-14T01:57:20;3.50;;;2.65;;
14933;SDS011;7560;51.364;12.384;2024-02-14T02:02:22;5.03;;;3.10;;
14933;SDS011;7560;51.364;12.384;2024-02-14T02:07:25;4.38;;;3.00;;
14933;SDS011;7560;51.364;12.384;2024-02-14T02:12:27;3.67;;;2.92;;
14933;SDS011;7560;51.364;12.384;2024-02-14T02:17:29;5.03;;;2.60;;
14933;SDS011;7560;51.364;12.384;2024-02-14T02:22:30;5.30;;;3.40;;
14933;SDS011;7560;51.364;12.384;2024-02-14T02:27:33;5.20;;;2.85;;
14933;SDS011;7560;51.364;12.384;2024-02-14T02:32:38;4.55;;;2.85;;
14933;SDS011;7560;51.364;12.384;2024-02-14T02:37:41;5.25;;;2.85;;
14933;SDS011;7560;51.364;12.384;2024-02-14T02:42:43;4.60;;;2.90;;
14933;SDS011;7560;51.364;12.384;2024-02-14T02:47:48;5.18;;;2.88;;
14933;SDS011;7560;51.364;12.384;2024-02-14T02:52:53;5.10;;;2.40;;
14933;SDS011;7560;51.364;12.384;2024-02-14T02:57:56;5.10;;;3.20;;
14933;SDS011;7560;51.364;12.384;2024-02-14T03:02:57;4.35;;;3.10;;
14933;SDS011;7560;51.364;12.384;2024-02-14T03:08:00;3.53;;;2.60;;
14933;SDS011;7560;51.364;12.384;2024-02-14T03:13:02;5.40;;;2.75;;
14933;SDS011;7560;51.364;12.384;2024-02-14T03:18:04;5.55;;;2.80;;
14933;SDS011;7560;51.364;12.384;2024-02-14T03:23:09;4.20;;;2.42;;
14933;SDS011;7560;51.364;12.384;2024-02-14T03:28:11;6.78;;;2.95;;
14933;SDS011;7560;51.364;12.384;2024-02-14T03:33:14;3.50;;;2.55;;
14933;SDS011;7560;51.364;12.384;2024-02-14T03:38:26;4.43;;;2.35;;
14933;SDS011;7560;51.364;12.384;2024-02-14T03:43:28;3.55;;;2.45;;
14933;SDS011;7560;51.364;12.384;2024-02-14T03:48:30;4.38;;;2.42;;
14933;SDS011;7560;51.364;12.384;2024-02-14T03:53:32;4.35;;;2.22;;
14933;SDS011;7560;51.364;12.384;2024-02-14T03:58:34;3.22;;;2.30;;
14933;SDS011;7560;51.364;12.384;2024-02-14T04:03:38;3.05;;;2.28;;
14933;SDS011;7560;51.364;12.384;2024-02-14T04:08:40;4.10;;;2.35;;
14933;SDS011;7560;51.364;12.384;2024-02-14T04:13:42;3.22;;;2.13;;
14933;SDS011;7560;51.364;12.384;2024-02-14T04:18:43;4.65;;;1.90;;
14933;SDS011;7560;51.364;12.384;2024-02-14T04:23:45;4.95;;;2.15;;
14933;SDS011;7560;51.364;12.384;2024-02-14T04:28:47;3.30;;;2.20;;
14933;SDS011;7560;51.364;12.384;2024-02-14T04:33:49;3.00;;;1.83;;
14933;SDS011;7560;51.364;12.384;2024-02-14T04:38:54;3.35;;;1.85;;
14933;SDS011;7560;51.364;12.384;2024-02-14T04:43:57;3.72;;;1.70;;
14933;SDS011;7560;51.364;12.384;2024-02-14T04:48:58;2.80;;;1.73;;
14933;SDS011;7560;51.364;12.384;2024-02-14T04:54:01;2.13;;;1.70;;
14933;SDS011;7560;51.364;12.384;2024-02-14T04:59:03;3.13;;;1.55;;
14933;SDS011;7560;51.364;12.384;2024-02-14T05:04:06;2.80;;;1.70;;
14933;SDS011;7560;51.364;12.384;2024-02-14T05:09:08;4.03;;;1.95;;
14933;SDS011;7560;51.364;12.384;2024-02-14T05:14:12;2.70;;;1.63;;
14933;SDS011;7560;51.364;12.384;2024-02-14T05:19:13;1.40;;;1.17;;
14933;SDS011;7560;51.364;12.384;2024-02-14T05:24:15;3.83;;;1.83;;
14933;SDS011;7560;51.364;12.384;2024-02-14T05:29:17;3.42;;;1.50;;
14933;SDS011;7560;51.364;12.384;2024-02-14T05:34:21;3.25;;;1.58;;
14933;SDS011;7560;51.364;12.384;2024-02-14T05:39:23;3.65;;;1.45;;
14933;SDS011;7560;51.364;12.384;2024-02-14T05:44:25;3.38;;;1.70;;
14933;SDS011;7560;51.364;12.384;2024-02-14T05:49:28;2.22;;;1.63;;
14933;SDS011;7560;51.364;12.384;2024-02-14T05:54:31;2.58;;;1.50;;
14933;SDS011;7560;51.364;12.384;2024-02-14T05:59:32;2.40;;;1.42;;
14933;SDS011;7560;51.364;12.384;2024-02-14T06:04:34;3.03;;;1.67;;
14933;SDS011;7560;51.364;12.384;2024-02-14T06:09:37;1.58;;;1.38;;
14933;SDS011;7560;51.364;12.384;2024-02-14T06:14:39;1.70;;;1.50;;
14933;SDS011;7560;51.364;12.384;2024-02-14T06:19:41;2.80;;;1.60;;
14933;SDS011;7560;51.364;12.384;2024-02-14T06:24:42;2.13;;;1.50;;
14933;SDS011;7560;51.364;12.384;2024-02-14T06:29:44;3.13;;;1.60;;
14933;SDS011;7560;51.364;12.384;2024-02-14T06:34:46;2.63;;;1.58;;
14933;SDS011;7560;51.364;12.384;2024-02-14T06:39:48;2.30;;;1.63;;
14933;SDS011;7560;51.364;12.384;2024-02-14T06:44:50;2.28;;;1.80;;
14933;SDS011;7560;51.364;12.384;2024-02-14T06:49:52;6.30;;;3.67;;
14933;SDS011;7560;51.364;12.384;2024-02-14T06:54:53;3.25;;;1.80;;
14933;SDS011;7560;51.364;12.384;2024-02-14T06:59:55;3.53;;;1.55;;
14933;SDS011;7560;51.364;12.384;2024-02-14T07:04:57;5.45;;;1.80;;
14933;SDS011;7560;51.364;12.384;2024-02-14T07:09:59;2.67;;;1.52;;
14933;SDS011;7560;51.364;12.384;2024-02-14T07:15:01;3.13;;;1.55;;
14933;SDS011;7560;51.364;12.384;2024-02-14T07:20:03;5.22;;;2.60;;
14933;SDS011;7560;51.364;12.384;2024-02-14T07:25:05;4.53;;;2.03;;
14933;SDS011;7560;51.364;12.384;2024-02-14T07:30:09;3.70;;;2.05;;
14933;SDS011;7560;51.364;12.384;2024-02-14T07:35:11;2.85;;;1.70;;
14933;SDS011;7560;51.364;12.384;2024-02-14T07:40:14;3.53;;;1.73;;
14933;SDS011;7560;51.364;12.384;2024-02-14T07:45:19;4.50;;;1.90;;
14933;SDS011;7560;51.364;12.384;2024-02-14T07:50:20;2.45;;;1.60;;
14933;SDS011;7560;51.364;12.384;2024-02-14T07:55:22;4.70;;;2.33;;
14933;SDS011;7560;51.364;12.384;2024-02-14T08:00:25;3.13;;;1.80;;
14933;SDS011;7560;51.364;12.384;2024-02-14T08:05:27;3.40;;;1.73;;
14933;SDS011;7560;51.364;12.384;2024-02-14T08:10:30;3.03;;;2.08;;
14933;SDS011;7560;51.364;12.384;2024-02-14T08:15:32;3.50;;;1.80;;
14933;SDS011;7560;51.364;12.384;2024-02-14T08:20:34;4.55;;;2.67;;
14933;SDS011;7560;51.364;12.384;2024-02-14T08:25:36;2.53;;;1.80;;
14933;SDS011;7560;51.364;12.384;2024-02-14T08:30:38;5.03;;;2.20;;
14933;SDS011;7560;51.364;12.384;2024-02-14T08:35:40;6.28;;;1.90;;
14933;SDS011;7560;51.364;12.384;2024-02-14T08:40:44;4.30;;;1.88;;
14933;SDS011;7560;51.364;12.384;2024-02-14T08:45:46;3.40;;;1.98;;
14933;SDS011;7560;51.364;12.384;2024-02-14T08:50:47;3.17;;;2.10;;
14933;SDS011;7560;51.364;12.384;2024-02-14T08:55:49;2.92;;;2.17;;
14933;SDS011;7560;51.364;12.384;2024-02-14T09:00:52;6.53;;;2.05;;
14933;SDS011;7560;51.364;12.384;2024-02-14T09:06:09;5.30;;;2.30;;
14933;SDS011;7560;51.364;12.384;2024-02-14T09:11:11;3.78;;;2.28;;
14933;SDS011;7560;51.364;12.384;2024-02-14T09:16:13;3.42;;;1.95;;
14933;SDS011;7560;51.364;12.384;2024-02-14T09:21:16;5.38;;;2.15;;
14933;SDS011;7560;51.364;12.384;2024-02-14T09:26:20;4.63;;;2.03;;
14933;SDS011;7560;51.364;12.384;2024-02-14T09:31:22;2.72;;;1.60;;
14933;SDS011;7560;51.364;12.384;2024-02-14T09:36:24;2.83;;;1.60;;
14933;SDS011;7560;51.364;12.384;2024-02-14T09:46:42;3.80;;;1.73;;
14933;SDS011;7560;51.364;12.384;2024-02-14T09:51:44;2.88;;;1.90;;
14933;SDS011;7560;51.364;12.384;2024-02-14T09:56:50;4.03;;;2.10;;
14933;SDS011;7560;51.364;12.384;2024-02-14T10:01:54;5.63;;;1.80;;
14933;SDS011;7560;51.364;12.384;2024-02-14T10:06:56;4.60;;;2.00;;
14933;SDS011;7560;51.364;12.384;2024-02-14T10:11:58;2.83;;;1.80;;
14933;SDS011;7560;51.364;12.384;2024-02-14T10:17:00;5.55;;;1.73;;
14933;SDS011;7560;51.364;12.384;2024-02-14T10:22:02;3.78;;;1.70;;
14933;SDS011;7560;51.364;12.384;2024-02-14T10:27:05;3.30;;;1.77;;
14933;SDS011;7560;51.364;12.384;2024-02-14T10:32:10;9.00;;;2.00;;
14933;SDS011;7560;51.364;12.384;2024-02-14T10:37:15;2.75;;;1.60;;
14933;SDS011;7560;51.364;12.384;2024-02-14T10:42:19;4.63;;;2.10;;
14933;SDS011;7560;51.364;12.384;2024-02-14T10:47:24;4.25;;;1.73;;
14933;SDS011;7560;51.364;12.384;2024-02-14T10:52:32;2.70;;;1.50;;
14933;SDS011;7560;51.364;12.384;2024-02-14T10:57:35;3.15;;;1.70;;
14933;SDS011;7560;51.364;12.384;2024-02-14T11:02:37;2.85;;;1.80;;
14933;SDS011;7560;51.364;12.384;2024-02-14T11:07:43;3.70;;;1.77;;
14933;SDS011;7560;51.364;12.384;2024-02-14T11:12:50;2.40;;;1.63;;
14933;SDS011;7560;51.364;12.384;2024-02-14T11:18:02;2.60;;;1.63;;
14933;SDS011;7560;51.364;12.384;2024-02-14T11:23:06;3.45;;;1.90;;
14933;SDS011;7560;51.364;12.384;2024-02-14T11:28:13;3.53;;;1.83;;
14933;SDS011;7560;51.364;12.384;2024-02-14T11:33:21;2.55;;;1.85;;
14933;SDS011;7560;51.364;12.384;2024-02-14T11:38:26;3.28;;;1.50;;
14933;SDS011;7560;51.364;12.384;2024-02-14T11:43:28;2.33;;;2.00;;
14933;SDS011;7560;51.364;12.384;2024-02-14T11:48:30;1.63;;;1.38;;
14933;SDS011;7560;51.364;12.384;2024-02-14T11:53:33;3.38;;;1.67;;
14933;SDS011;7560;51.364;12.384;2024-02-14T11:58:35;1.55;;;1.45;;
14933;SDS011;7560;51.364;12.384;2024-02-14T12:03:37;2.38;;;1.50;;
14933;SDS011;7560;51.364;12.384;2024-02-14T12:08:40;5.07;;;1.60;;
14933;SDS011;7560;51.364;12.384;2024-02-14T12:13:42;2.13;;;1.60;;
14933;SDS011;7560;51.364;12.384;2024-02-14T12:18:48;1.83;;;1.50;;
14933;SDS011;7560;51.364;12.384;2024-02-14T12:23:57;1.60;;;1.33;;
14933;SDS011;7560;51.364;12.384;2024-02-14T12:29:03;1.13;;;1.02;;
14933;SDS011;7560;51.364;12.384;2024-02-14T12:34:06;1.83;;;1.23;;
14933;SDS011;7560;51.364;12.384;2024-02-14T12:39:08;1.63;;;1.30;;
14933;SDS011;7560;51.364;12.384;2024-02-14T12:44:14;1.33;;;1.10;;
14933;SDS011;7560;51.364;12.384;2024-02-14T12:49:15;1.60;;;1.17;;
14933;SDS011;7560;51.364;12.384;2024-02-14T12:54:19;1.10;;;1.00;;
14933;SDS011;7560;51.364;12.384;2024-02-14T12:59:21;0.98;;;0.82;;
14933;SDS011;7560;51.364;12.384;2024-02-14T13:04:23;2.08;;;1.10;;
14933;SDS011;7560;51.364;12.384;2024-02-14T13:09:25;2.35;;;1.40;;
14933;SDS011;7560;51.364;12.384;2024-02-14T13:14:29;1.48;;;1.10;;
14933;SDS011;7560;51.364;12.384;2024-02-14T13:19:35;3.05;;;1.20;;
14933;SDS011;7560;51.364;12.384;2024-02-14T13:24:37;1.33;;;1.20;;
14933;SDS011;7560;51.364;12.384;2024-02-14T13:29:39;2.63;;;1.13;;
14933;SDS011;7560;51.364;12.384;2024-02-14T13:34:42;2.42;;;1.52;;
14933;SDS011;7560;51.364;12.384;2024-02-14T13:39:45;1.58;;;1.30;;
14933;SDS011;7560;51.364;12.384;2024-02-14T13:44:47;2.25;;;1.20;;
14933;SDS011;7560;51.364;12.384;2024-02-14T13:49:48;3.65;;;1.50;;
14933;SDS011;7560;51.364;12.384;2024-02-14T13:54:51;1.75;;;1.30;;
14933;SDS011;7560;51.364;12.384;2024-02-14T13:59:53;3.00;;;1.65;;
14933;SDS011;7560;51.364;12.384;2024-02-14T14:04:55;1.67;;;1.23;;
14933;SDS011;7560;51.364;12.384;2024-02-14T14:09:57;1.63;;;1.20;;
14933;SDS011;7560;51.364;12.384;2024-02-14T14:15:00;2.30;;;1.40;;
14933;SDS011;7560;51.364;12.384;2024-02-14T14:20:04;1.40;;;1.20;;
14933;SDS011;7560;51.364;12.384;2024-02-14T14:25:09;2.53;;;1.50;;
14933;SDS011;7560;51.364;12.384;2024-02-14T14:30:12;1.92;;;1.30;;
14933;SDS011;7560;51.364;12.384;2024-02-14T14:35:15;3.38;;;1.63;;
14933;SDS011;7560;51.364;12.384;2024-02-14T14:40:17;2.38;;;1.60;;
14933;SDS011;7560;51.364;12.384;2024-02-14T14:45:19;2.90;;;1.73;;
14933;SDS011;7560;51.364;12.384;2024-02-14T14:50:21;5.60;;;2.90;;
14933;SDS011;7560;51.364;12.384;2024-02-14T14:55:24;2.20;;;1.67;;
14933;SDS011;7560;51.364;12.384;2024-02-14T15:00:26;2.70;;;2.10;;
14933;SDS011;7560;51.364;12.384;2024-02-14T15:05:28;3.60;;;2.55;;
14933;SDS011;7560;51.364;12.384;2024-02-14T15:10:31;2.60;;;1.83;;
14933;SDS011;7560;51.364;12.384;2024-02-14T15:15:33;2.97;;;2.00;;
14933;SDS011;7560;51.364;12.384;2024-02-14T15:20:34;2.95;;;1.67;;
14933;SDS011;7560;51.364;12.384;2024-02-14T15:25:39;4.15;;;2.00;;
14933;SDS011;7560;51.364;12.384;2024-02-14T15:30:41;2.15;;;1.48;;
14933;SDS011;7560;51.364;12.384;2024-02-14T15:36:02;2.75;;;1.75;;
14933;SDS011;7560;51.364;12.384;2024-02-14T15:41:04;2.55;;;1.95;;
14933;SDS011;7560;51.364;12.384;2024-02-14T15:46:08;3.35;;;2.40;;
14933;SDS011;7560;51.364;12.384;2024-02-14T15:51:10;3.65;;;2.42;;
14933;SDS011;7560;51.364;12.384;2024-02-14T15:56:12;3.50;;;2.28;;
14933;SDS011;7560;51.364;12.384;2024-02-14T16:01:15;4.93;;;2.60;;
14933;SDS011;7560;51.364;12.384;2024-02-14T16:06:18;5.07;;;2.50;;
14933;SDS011;7560;51.364;12.384;2024-02-14T16:11:20;2.55;;;2.00;;
14933;SDS011;7560;51.364;12.384;2024-02-14T16:16:22;4.47;;;2.40;;
14933;SDS011;7560;51.364;12.384;2024-02-14T16:21:24;3.33;;;2.20;;
14933;SDS011;7560;51.364;12.384;2024-02-14T16:26:25;4.45;;;2.50;;
14933;SDS011;7560;51.364;12.384;2024-02-14T16:31:31;3.55;;;2.10;;
14933;SDS011;7560;51.364;12.384;2024-02-14T16:36:33;4.18;;;2.63;;
14933;SDS011;7560;51.364;12.384;2024-02-14T16:41:35;5.75;;;2.97;;
14933;SDS011;7560;51.364;12.384;2024-02-14T16:46:38;5.85;;;3.65;;
14933;SDS011;7560;51.364;12.384;2024-02-14T16:51:41;5.90;;;3.00;;
14933;SDS011;7560;51.364;12.384;2024-02-14T16:56:42;3.83;;;3.08;;
14933;SDS011;7560;51.364;12.384;2024-02-14T17:01:44;5.00;;;2.97;;
14933;SDS011;7560;51.364;12.384;2024-02-14T17:06:46;3.58;;;2.58;;
14933;SDS011;7560;51.364;12.384;2024-02-14T17:11:48;5.63;;;2.72;;
14933;SDS011;7560;51.364;12.384;2024-02-14T17:16:50;2.92;;;2.50;;
14933;SDS011;7560;51.364;12.384;2024-02-14T17:21:56;3.13;;;2.50;;
14933;SDS011;7560;51.364;12.384;2024-02-14T17:26:58;6.90;;;3.72;;
14933;SDS011;7560;51.364;12.384;2024-02-14T17:32:01;3.67;;;2.92;;
14933;SDS011;7560;51.364;12.384;2024-02-14T17:37:03;4.00;;;2.80;;
14933;SDS011;7560;51.364;12.384;2024-02-14T17:42:05;4.88;;;3.15;;
14933;SDS011;7560;51.364;12.384;2024-02-14T17:47:07;4.13;;;3.10;;
14933;SDS011;7560;51.364;12.384;2024-02-14T17:52:09;3.65;;;3.15;;
14933;SDS011;7560;51.364;12.384;2024-02-14T17:57:10;5.78;;;3.20;;
14933;SDS011;7560;51.364;12.384;2024-02-14T18:02:13;3.50;;;2.75;;
14933;SDS011;7560;51.364;12.384;2024-02-14T18:07:14;5.47;;;3.35;;
14933;SDS011;7560;51.364;12.384;2024-02-14T18:12:17;5.55;;;3.30;;
14933;SDS011;7560;51.364;12.384;2024-02-14T18:17:19;3.00;;;2.75;;
14933;SDS011;7560;51.364;12.384;2024-02-14T18:22:21;5.35;;;2.85;;
14933;SDS011;7560;51.364;12.384;2024-02-14T18:27:23;3.50;;;2.75;;
14933;SDS011;7560;51.364;12.384;2024-02-14T18:32:28;3.85;;;2.92;;
14933;SDS011;7560;51.364;12.384;2024-02-14T18:37:30;3.13;;;2.80;;
14933;SDS011;7560;51.364;12.384;2024-02-14T18:42:32;3.45;;;2.55;;
14933;SDS011;7560;51.364;12.384;2024-02-14T18:47:34;5.00;;;2.60;;
14933;SDS011;7560;51.364;12.384;2024-02-14T18:52:37;4.18;;;2.97;;
14933;SDS011;7560;51.364;12.384;2024-02-14T18:57:39;4.82;;;3.10;;
14933;SDS011;7560;51.364;12.384;2024-02-14T19:02:41;4.63;;;2.95;;
14933;SDS011;7560;51.364;12.384;2024-02-14T19:07:44;3.55;;;2.70;;
14933;SDS011;7560;51.364;12.384;2024-02-14T19:12:46;4.85;;;3.03;;
14933;SDS011;7560;51.364;12.384;2024-02-14T19:17:48;3.03;;;2.72;;
14933;SDS011;7560;51.364;12.384;2024-02-14T19:22:50;3.58;;;2.70;;
14933;SDS011;7560;51.364;12.384;2024-02-14T19:27:52;3.38;;;2.60;;
14933;SDS011;7560;51.364;12.384;2024-02-14T19:32:53;3.67;;;2.75;;
14933;SDS011;7560;51.364;12.384;2024-02-14T19:37:55;5.70;;;3.45;;
14933;SDS011;7560;51.364;12.384;2024-02-14T19:42:57;4.05;;;3.00;;
14933;SDS011;7560;51.364;12.384;2024-02-14T19:47:59;4.70;;;3.40;;
14933;SDS011;7560;51.364;12.384;2024-02-14T19:53:01;5.28;;;4.07;;
14933;SDS011;7560;51.364;12.384;2024-02-14T19:58:04;4.05;;;2.90;;
14933;SDS011;7560;51.364;12.384;2024-02-14T20:03:06;5.53;;;2.95;;
14933;SDS011;7560;51.364;12.384;2024-02-14T20:08:08;5.35;;;2.70;;
14933;SDS011;7560;51.364;12.384;2024-02-14T20:13:10;4.22;;;3.15;;
14933;SDS011;7560;51.364;12.384;2024-02-14T20:18:11;4.95;;;2.85;;
14933;SDS011;7560;51.364;12.384;2024-02-14T20:23:17;4.00;;;2.78;;
14933;SDS011;7560;51.364;12.384;2024-02-14T20:28:19;3.53;;;3.00;;
14933;SDS011;7560;51.364;12.384;2024-02-14T20:33:22;3.22;;;2.90;;
14933;SDS011;7560;51.364;12.384;2024-02-14T20:38:27;5.15;;;3.05;;
14933;SDS011;7560;51.364;12.384;2024-02-14T20:43:29;3.92;;;2.90;;
14933;SDS011;7560;51.364;12.384;2024-02-14T20:48:31;4.18;;;3.33;;
14933;SDS011;7560;51.364;12.384;2024-02-14T20:53:33;3.40;;;3.08;;
14933;SDS011;7560;51.364;12.384;2024-02-14T20:58:35;4.53;;;3.17;;
14933;SDS011;7560;51.364;12.384;2024-02-14T21:03:57;3.83;;;2.72;;
14933;SDS011;7560;51.364;12.384;2024-02-14T21:08:59;3.45;;;2.78;;
14933;SDS011;7560;51.364;12.384;2024-02-14T21:14:01;3.83;;;3.15;;
14933;SDS011;7560;51.364;12.384;2024-02-14T21:19:05;8.85;;;6.15;;
14933;SDS011;7560;51.364;12.384;2024-02-14T21:24:06;4.97;;;3.08;;
14933;SDS011;7560;51.364;12.384;2024-02-14T21:29:09;3.47;;;3.00;;
14933;SDS011;7560;51.364;12.384;2024-02-14T21:34:10;6.53;;;3.30;;
14933;SDS011;7560;51.364;12.384;2024-02-14T21:39:13;5.82;;;3.00;;
14933;SDS011;7560;51.364;12.384;2024-02-14T21:44:17;3.95;;;2.95;;
14933;SDS011;7560;51.364;12.384;2024-02-14T21:49:21;3.63;;;3.28;;
14933;SDS011;7560;51.364;12.384;2024-02-14T21:54:25;3.92;;;3.08;;
14933;SDS011;7560;51.364;12.384;2024-02-14T21:59:26;4.95;;;3.50;;
14933;SDS011;7560;51.364;12.384;2024-02-14T22:04:29;5.88;;;3.15;;
14933;SDS011;7560;51.364;12.384;2024-02-14T22:09:31;3.85;;;3.20;;
14933;SDS011;7560;51.364;12.384;2024-02-14T22:14:33;4.15;;;3.25;;
14933;SDS011;7560;51.364;12.384;2024-02-14T22:19:36;4.28;;;3.38;;
14933;SDS011;7560;51.364;12.384;2024-02-14T22:24:40;3.75;;;3.30;;
14933;SDS011;7560;51.364;12.384;2024-02-14T22:29:41;3.92;;;3.17;;
14933;SDS011;7560;51.364;12.384;2024-02-14T22:34:43;4.57;;;3.35;;
14933;SDS011;7560;51.364;12.384;2024-02-14T22:39:45;4.15;;;3.75;;
14933;SDS011;7560;51.364;12.384;2024-02-14T22:44:47;4.55;;;3.33;;
14933;SDS011;7560;51.364;12.384;2024-02-14T22:49:49;5.68;;;4.22;;
14933;SDS011;7560;51.364;12.384;2024-02-14T22:54:50;5.72;;;3.83;;
14933;SDS011;7560;51.364;12.384;2024-02-14T22:59:54;4.20;;;3.65;;
14933;SDS011;7560;51.364;12.384;2024-02-14T23:04:56;4.38;;;3.72;;
14933;SDS011;7560;51.364;12.384;2024-02-14T23:09:58;4.53;;;3.55;;
14933;SDS011;7560;51.364;12.384;2024-02-14T23:15:00;5.20;;;4.03;;
14933;SDS011;7560;51.364;12.384;2024-02-14T23:20:02;4.60;;;4.03;;
14933;SDS011;7560;51.364;12.384;2024-02-14T23:25:07;5.65;;;4.15;;
14933;SDS011;7560;51.364;12.384;2024-02-14T23:30:11;4.88;;;4.28;;
14933;SDS011;7560;51.364;12.384;2024-02-14T23:35:16;6.20;;;4.40;;
14933;SDS011;7560;51.364;12.384;2024-02-14T23:40:19;5.65;;;4.45;;
14933;SDS011;7560;51.364;12.384;2024-02-14T23:45:21;6.38;;;4.65;;
14933;SDS011;7560;51.364;12.384;2024-02-14T23:50:22;4.78;;;3.92;;
14933;SDS011;7560;51.364;12.384;2024-02-14T23:55:26;5.32;;;4.18;;
